Time;durP1;ratioP1;P1;durP2;ratioP2;P2;SDS_P1;SDS_P2;PMS_P1;PMS_P2;Temp;Humidity;BMP_temperature;BMP_pressure;BME280_temperature;BME280_humidity;BME280_pressure;Samples;Min_cycle;Max_cycle;Signal;HPM_P1;HPM_P2
2022/08/19 00:01:03;;;;;;;;;;;;;;;-142.75;100.00;76210.06;5053009;28;19948;-67
2022/08/19 00:03:28;;;;;;;;;;;;;;;-142.75;100.00;76206.13;5052847;28;20404;-67
2022/08/19 00:05:53;;;;;;;;;;;;;;;-142.75;100.00;76210.06;5053089;28;20290;-67
2022/08/19 00:08:18;;;;;;;;;;;;;;;-142.75;100.00;76202.19;5052851;28;20000;-68
2022/08/19 00:10:45;;;;;;;;;;;;;;;-142.75;100.00;76204.16;5053095;28;19916;-66
2022/08/19 00:13:10;;;;;;;;;;;;;;;-142.75;100.00;76214.00;5052837;28;20308;-66
2022/08/19 00:15:36;;;;;;;;;;;;;;;-142.75;100.00;76233.69;5052944;28;19957;-66
2022/08/19 00:18:01;;;;;;;;;;;;;;;-142.75;100.00;76239.59;5052393;28;19913;-67
2022/08/19 00:20:27;;;;;;;;;;;;;;;-142.75;100.00;76249.44;5052894;28;19985;-67
2022/08/19 00:22:52;;;;;;;;;;;;;;;-142.75;100.00;76265.19;5052880;28;19913;-67
2022/08/19 00:25:18;;;;;;;;;;;;;;;-142.75;100.00;76282.91;5072526;22;20287;-65
2022/08/19 00:27:43;;;;;;;;;;;;;;;-142.75;100.00;76306.53;5032297;28;19917;-65
2022/08/19 00:30:10;;;;;;;;;;;;;;;-142.75;100.00;76320.31;5034794;28;19920;-65
2022/08/19 00:32:35;;;;;;;;;;;;;;;-142.75;100.00;76308.50;5052597;28;19915;-65
2022/08/19 00:35:01;;;;;;;;;;;;;;;-142.75;100.00;76298.66;5052384;28;20023;-65
2022/08/19 00:37:27;;;;;;;;;;;;;;;-142.75;100.00;76286.84;5052056;28;19960;-65
2022/08/19 00:39:52;;;;;;;;;;;;;;;-142.75;100.00;76288.81;5052348;28;20365;-65
2022/08/19 00:42:18;;;;;;;;;;;;;;;-142.75;100.00;76308.50;5052310;28;19914;-65
2022/08/19 00:44:44;;;;;;;;;;;;;;;-142.75;100.00;76312.44;5052209;28;20383;-65
2022/08/19 00:47:11;;;;;;;;;;;;;;;-142.75;100.00;76320.31;5050743;28;19920;-66
2022/08/19 00:49:43;;;;;;;;;;;;;;;-142.75;100.00;76332.13;5052368;28;19913;-67
2022/08/19 00:52:13;;;;;;;;;;;;;;;-142.75;100.00;76312.44;5052307;28;19913;-67
2022/08/19 00:54:39;;;;;;;;;;;;;;;-142.75;100.00;76314.41;5052039;28;20367;-67
2022/08/19 00:57:07;;;;;;;;;;;;;;;-142.75;100.00;76298.66;5052015;28;19919;-67
2022/08/19 00:59:35;;;;;;;;;;;;;;;-142.75;100.00;76284.88;5051984;28;19940;-67
2022/08/19 01:02:00;;;;;;;;;;;;;;;-142.75;100.00;76294.72;5052165;28;19956;-67
2022/08/19 01:04:26;;;;;;;;;;;;;;;-142.75;100.00;76284.88;5050791;28;20418;-67
2022/08/19 01:06:51;;;;;;;;;;;;;;;-142.75;100.00;76290.78;5051928;28;20389;-66
2022/08/19 01:09:16;;;;;;;;;;;;;;;-142.75;100.00;76284.88;5051977;28;20390;-67
2022/08/19 01:11:42;;;;;;;;;;;;;;;-142.75;100.00;76271.09;5052044;28;20484;-67
2022/08/19 01:14:08;;;;;;;;;;;;;;;-142.75;100.00;76269.13;5052624;28;19994;-67
2022/08/19 01:16:34;;;;;;;;;;;;;;;-142.75;100.00;76263.22;5055992;28;19913;-67
2022/08/19 01:19:00;;;;;;;;;;;;;;;-142.75;100.00;76261.25;5056056;28;19978;-67
2022/08/19 01:21:30;;;;;;;;;;;;;;;-142.75;100.00;76263.22;5056190;28;19916;-67
2022/08/19 01:23:55;;;;;;;;;;;;;;;-142.75;100.00;76263.22;5055724;28;19921;-67
2022/08/19 01:26:21;;;;;;;;;;;;;;;-142.75;100.00;76278.97;5055985;28;19966;-67
2022/08/19 01:28:48;;;;;;;;;;;;;;;-142.75;100.00;76290.78;5054315;28;19913;-67
2022/08/19 01:31:18;;;;;;;;;;;;;;;-142.75;100.00;76286.84;5055912;28;19912;-67
2022/08/19 01:33:44;;;;;;;;;;;;;;;-142.75;100.00;76280.94;5055800;28;20281;-67
2022/08/19 01:36:11;;;;;;;;;;;;;;;-142.75;100.00;76278.97;5055758;28;19917;-67
2022/08/19 01:38:38;;;;;;;;;;;;;;;-142.75;100.00;76280.94;5055330;28;20467;-67
2022/08/19 01:41:03;;;;;;;;;;;;;;;-142.75;100.00;76282.91;5055701;28;19913;-67
2022/08/19 01:43:28;;;;;;;;;;;;;;;-142.75;100.00;76282.91;5055605;28;19965;-67
2022/08/19 01:45:54;;;;;;;;;;;;;;;-142.75;100.00;76275.03;5055574;28;19956;-66
2022/08/19 01:48:19;;;;;;;;;;;;;;;-142.75;100.00;76275.03;5055275;28;19959;-67
2022/08/19 01:50:44;;;;;;;;;;;;;;;-142.75;100.00;76278.97;5055430;28;20451;-67
2022/08/19 01:53:11;;;;;;;;;;;;;;;-142.75;100.00;76275.03;5055397;28;20199;-67
2022/08/19 01:55:38;;;;;;;;;;;;;;;-142.75;100.00;76263.22;5055309;28;20003;-67
2022/08/19 01:58:04;;;;;;;;;;;;;;;-142.75;100.00;76267.16;5054976;28;19935;-67
2022/08/19 02:00:31;;;;;;;;;;;;;;;-142.75;100.00;76263.22;5055258;28;20366;-67
2022/08/19 02:02:56;;;;;;;;;;;;;;;-142.75;100.00;76253.38;5055235;28;19913;-67
2022/08/19 02:05:21;;;;;;;;;;;;;;;-142.75;100.00;76247.47;5055196;28;20566;-67
2022/08/19 02:07:47;;;;;;;;;;;;;;;-142.75;100.00;76233.69;5054883;28;20466;-67
2022/08/19 02:10:15;;;;;;;;;;;;;;;-142.75;100.00;76237.63;5055211;28;20026;-67
2022/08/19 02:12:40;;;;;;;;;;;;;;;-142.75;100.00;76243.53;5055185;28;19917;-67
2022/08/19 02:15:07;;;;;;;;;;;;;;;-142.75;100.00;76245.50;5055189;28;19913;-65
2022/08/19 02:17:32;;;;;;;;;;;;;;;-142.75;100.00;76243.53;5054784;28;19920;-65
2022/08/19 02:19:58;;;;;;;;;;;;;;;-142.75;100.00;76251.41;5054829;28;20007;-65
2022/08/19 02:22:25;;;;;;;;;;;;;;;-142.75;100.00;76243.53;5054953;28;19944;-65
2022/08/19 02:24:51;;;;;;;;;;;;;;;-142.75;100.00;76237.63;5054567;28;19921;-65
2022/08/19 02:27:16;;;;;;;;;;;;;;;-142.75;100.00;76237.63;5054476;28;19913;-65
2022/08/19 02:29:42;;;;;;;;;;;;;;;-142.75;100.00;76237.63;5054850;28;19913;-65
2022/08/19 02:32:07;;;;;;;;;;;;;;;-142.75;100.00;76239.59;5053574;28;20003;-67
2022/08/19 02:34:33;;;;;;;;;;;;;;;-142.75;100.00;76235.66;5054717;28;19913;-65
2022/08/19 02:36:58;;;;;;;;;;;;;;;-142.75;100.00;76249.44;5054278;28;19970;-65
2022/08/19 02:39:23;;;;;;;;;;;;;;;-142.75;100.00;76245.50;5054559;28;20278;-64
2022/08/19 02:41:49;;;;;;;;;;;;;;;-142.75;100.00;76249.44;5054663;28;19921;-65
2022/08/19 02:44:14;;;;;;;;;;;;;;;-142.75;100.00;76259.28;5054427;28;20628;-65
2022/08/19 02:46:40;;;;;;;;;;;;;;;-142.75;100.00;76247.47;5052791;28;19951;-65
2022/08/19 02:49:07;;;;;;;;;;;;;;;-142.75;100.00;76243.53;5053070;28;20003;-65
2022/08/19 02:51:34;;;;;;;;;;;;;;;-142.75;100.00;76235.66;5053053;28;20016;-65
2022/08/19 02:53:59;;;;;;;;;;;;;;;-142.75;100.00;76239.59;5054285;28;19984;-65
2022/08/19 02:56:27;;;;;;;;;;;;;;;-142.75;100.00;76243.53;5054303;28;20408;-67
2022/08/19 02:58:52;;;;;;;;;;;;;;;-142.75;100.00;76245.50;5054074;28;20382;-67
2022/08/19 03:01:21;;;;;;;;;;;;;;;-142.75;100.00;76255.34;5054197;28;19940;-66
2022/08/19 03:03:46;;;;;;;;;;;;;;;-142.75;100.00;76251.41;5052750;28;19912;-67
2022/08/19 03:06:12;;;;;;;;;;;;;;;-142.75;100.00;76247.47;5054184;28;19959;-67
2022/08/19 03:08:39;;;;;;;;;;;;;;;-142.75;100.00;76257.31;5053936;28;20007;-65
2022/08/19 03:11:04;;;;;;;;;;;;;;;-142.75;100.00;76241.56;5052781;28;19913;-66
2022/08/19 03:13:29;;;;;;;;;;;;;;;-142.75;100.00;76237.63;5053935;28;19913;-65
2022/08/19 03:15:54;;;;;;;;;;;;;;;-142.75;100.00;76241.56;5054076;28;20307;-65
2022/08/19 03:18:20;;;;;;;;;;;;;;;-142.75;100.00;76235.66;5053560;28;19920;-65
2022/08/19 03:20:46;;;;;;;;;;;;;;;-142.75;100.00;76233.69;5053928;28;19920;-65
2022/08/19 03:23:15;;;;;;;;;;;;;;;-142.75;100.00;76231.72;5053794;28;19919;-66
2022/08/19 03:25:41;;;;;;;;;;;;;;;-142.75;100.00;76231.72;5053684;28;20302;-65
2022/08/19 03:28:07;;;;;;;;;;;;;;;-142.75;100.00;76233.69;5053519;28;19999;-65
2022/08/19 03:30:33;;;;;;;;;;;;;;;-142.75;100.00;76225.81;5053870;28;20000;-65
2022/08/19 03:32:58;;;;;;;;;;;;;;;-142.75;100.00;76237.63;5053753;28;19920;-67
2022/08/19 03:35:23;;;;;;;;;;;;;;;-142.75;100.00;76233.69;5052217;28;20544;-67
2022/08/19 03:37:48;;;;;;;;;;;;;;;-142.75;100.00;76239.59;5052736;28;19913;-67
2022/08/19 03:40:14;;;;;;;;;;;;;;;-142.75;100.00;76239.59;5053637;28;19917;-67
2022/08/19 03:42:42;;;;;;;;;;;;;;;-142.75;100.00;76245.50;5053668;28;19980;-67
2022/08/19 03:45:07;;;;;;;;;;;;;;;-142.75;100.00;76273.06;5053553;28;19912;-66
2022/08/19 03:47:33;;;;;;;;;;;;;;;-142.75;100.00;76271.09;5053209;28;19965;-67
2022/08/19 03:49:58;;;;;;;;;;;;;;;-142.75;100.00;76278.97;5053720;28;19917;-67
2022/08/19 03:52:23;;;;;;;;;;;;;;;-142.75;100.00;76277.00;5053925;28;19912;-67
2022/08/19 03:54:48;;;;;;;;;;;;;;;-142.75;100.00;76282.91;5053804;28;19917;-66
2022/08/19 03:57:13;;;;;;;;;;;;;;;-142.75;100.00;76288.81;5052305;28;20003;-67
2022/08/19 03:59:39;;;;;;;;;;;;;;;-142.75;100.00;76308.50;5053715;28;20340;-67
2022/08/19 04:02:08;;;;;;;;;;;;;;;-142.75;100.00;76300.63;5053658;28;20412;-67
2022/08/19 04:04:34;;;;;;;;;;;;;;;-142.75;100.00;76314.41;5053515;28;20010;-67
2022/08/19 04:06:59;;;;;;;;;;;;;;;-142.75;100.00;76312.44;5051931;28;19952;-67
2022/08/19 04:09:25;;;;;;;;;;;;;;;-142.75;100.00;76316.38;5053275;28;19913;-67
2022/08/19 04:11:55;;;;;;;;;;;;;;;-142.75;100.00;76324.25;5053259;28;19916;-67
2022/08/19 04:14:22;;;;;;;;;;;;;;;-142.75;100.00;76338.03;5053250;28;20377;-67
2022/08/19 04:16:48;;;;;;;;;;;;;;;-142.75;100.00;76328.19;5053169;28;19912;-67
2022/08/19 04:19:13;;;;;;;;;;;;;;;-142.75;100.00;76341.97;5053028;28;19917;-67
2022/08/19 04:21:39;;;;;;;;;;;;;;;-142.75;100.00;76345.91;5053345;28;20301;-67
2022/08/19 04:24:04;;;;;;;;;;;;;;;-142.75;100.00;76328.19;5052919;28;19917;-67
2022/08/19 04:26:31;;;;;;;;;;;;;;;-142.75;100.00;76338.03;5052953;28;19916;-67
2022/08/19 04:28:57;;;;;;;;;;;;;;;-142.75;100.00;76345.91;5053093;28;19913;-67
2022/08/19 04:31:27;;;;;;;;;;;;;;;-142.75;100.00;76341.97;5052873;28;19919;-67
2022/08/19 04:33:54;;;;;;;;;;;;;;;-142.75;100.00;76349.81;5052741;28;19919;-67
2022/08/19 04:36:20;;;;;;;;;;;;;;;-142.75;100.00;76343.94;5053020;28;19920;-67
2022/08/19 04:38:47;;;;;;;;;;;;;;;-142.75;100.00;76353.78;5052665;28;20442;-67
2022/08/19 04:43:56;;;;;;;;;;;;;;;-142.75;100.00;76347.84;5052501;28;19920;-66
2022/08/19 04:46:21;;;;;;;;;;;;;;;-142.75;100.00;76349.81;5052591;28;19942;-67
2022/08/19 04:48:46;;;;;;;;;;;;;;;-142.75;100.00;76351.81;5051516;28;19912;-67
2022/08/19 04:51:13;;;;;;;;;;;;;;;-142.75;100.00;76343.94;5052594;28;20297;-67
2022/08/19 04:53:38;;;;;;;;;;;;;;;-142.75;100.00;76345.91;5052535;28;19913;-67
2022/08/19 04:56:06;;;;;;;;;;;;;;;-142.75;100.00;76338.03;5052595;28;19912;-67
2022/08/19 04:58:32;;;;;;;;;;;;;;;-142.75;100.00;76336.06;5052118;28;19917;-65
2022/08/19 05:00:59;;;;;;;;;;;;;;;-142.75;100.00;76334.09;5052444;28;20308;-65
2022/08/19 05:03:24;;;;;;;;;;;;;;;-142.75;100.00;76334.09;5052467;28;19913;-67
2022/08/19 05:05:50;;;;;;;;;;;;;;;-142.75;100.00;76340.00;5052724;28;19939;-67
2022/08/19 05:08:21;;;;;;;;;;;;;;;-142.75;100.00;76347.84;5052183;28;19912;-67
2022/08/19 05:10:48;;;;;;;;;;;;;;;-142.75;100.00;76340.00;5052267;28;20436;-67
2022/08/19 05:13:14;;;;;;;;;;;;;;;-142.75;100.00;76328.19;5052287;28;19955;-67
2022/08/19 05:15:39;;;;;;;;;;;;;;;-142.75;100.00;76326.22;5052523;28;19913;-67
2022/08/19 05:23:32;;;;;;;;;;;;;;;-142.75;100.00;76314.41;5052051;28;19966;-67
2022/08/19 05:25:57;;;;;;;;;;;;;;;-142.75;100.00;76310.47;5052566;28;19920;-65
2022/08/19 05:28:23;;;;;;;;;;;;;;;-142.75;100.00;76310.47;5051784;28;19912;-65
2022/08/19 05:30:50;;;;;;;;;;;;;;;-142.75;100.00;76302.59;5051651;28;20438;-65
2022/08/19 05:33:15;;;;;;;;;;;;;;;-142.75;100.00;76302.59;5051690;28;19916;-65
2022/08/19 05:35:40;;;;;;;;;;;;;;;-142.75;100.00;76300.63;5049065;28;19951;-65
2022/08/19 05:38:10;;;;;;;;;;;;;;;-142.75;100.00;76294.72;5051292;28;19959;-65
2022/08/19 05:40:36;;;;;;;;;;;;;;;-142.75;100.00;76278.97;5051641;28;19960;-65
2022/08/19 05:43:02;;;;;;;;;;;;;;;-142.75;100.00;76275.03;5050489;28;19921;-65
2022/08/19 05:45:27;;;;;;;;;;;;;;;-142.75;100.00;76271.09;5050397;28;19963;-65
2022/08/19 05:47:53;;;;;;;;;;;;;;;-142.75;100.00;76271.09;5051363;28;19993;-65
2022/08/19 05:50:18;;;;;;;;;;;;;;;-142.75;100.00;76275.03;5051543;28;20443;-65
2022/08/19 05:52:43;;;;;;;;;;;;;;;-142.75;100.00;76271.09;5051471;28;19919;-65
2022/08/19 05:55:09;;;;;;;;;;;;;;;-142.75;100.00;76273.06;5050677;28;20399;-65
2022/08/19 05:57:34;;;;;;;;;;;;;;;-142.75;100.00;76263.22;5052152;28;19919;-67
2022/08/19 06:00:01;;;;;;;;;;;;;;;-142.75;100.00;76247.47;5051105;28;20278;-67
2022/08/19 06:02:26;;;;;;;;;;;;;;;-142.75;100.00;76231.72;5055821;28;20379;-68
2022/08/19 06:04:52;;;;;;;;;;;;;;;-142.75;100.00;76233.69;5055481;28;19919;-67
2022/08/19 06:07:17;;;;;;;;;;;;;;;-142.75;100.00;76229.75;5055364;28;19963;-67
2022/08/19 06:09:42;;;;;;;;;;;;;;;-142.75;100.00;76229.75;5055550;28;19913;-65
2022/08/19 06:12:07;;;;;;;;;;;;;;;-142.75;100.00;76221.88;5054131;28;19913;-65
2022/08/19 06:14:34;;;;;;;;;;;;;;;-142.75;100.00;76208.09;5055501;28;19920;-65
2022/08/19 06:17:01;;;;;;;;;;;;;;;-142.75;100.00;76204.16;5055212;28;19921;-64
2022/08/19 06:19:29;;;;;;;;;;;;;;;-142.75;100.00;76196.31;5055616;28;20008;-65
2022/08/19 06:21:54;;;;;;;;;;;;;;;-142.75;100.00;76208.09;5055409;28;19920;-67
2022/08/19 06:24:23;;;;;;;;;;;;;;;-142.75;100.00;76212.03;5079286;22;19932;-65
2022/08/19 06:26:50;;;;;;;;;;;;;;;-142.75;100.00;76200.25;5072487;28;19974;-65
2022/08/19 06:29:17;;;;;;;;;;;;;;;-142.75;100.00;76178.59;5073906;28;19912;-66
2022/08/19 06:31:44;;;;;;;;;;;;;;;-142.75;100.00;76172.69;5056798;28;20011;-66
2022/08/19 06:34:10;;;;;;;;;;;;;;;-142.75;100.00;76158.91;5074570;28;20452;-66
2022/08/19 06:36:36;;;;;;;;;;;;;;;-142.75;100.00;76147.09;5073737;28;20023;-65
2022/08/19 06:39:06;;;;;;;;;;;;;;;-142.75;100.00;76131.34;5068240;28;19924;-66
2022/08/19 06:41:34;;;;;;;;;;;;;;;-142.75;100.00;76107.72;5074493;28;20289;-65
2022/08/19 06:43:59;;;;;;;;;;;;;;;-142.75;100.00;76095.91;5070951;28;19920;-65
2022/08/19 06:46:24;;;;;;;;;;;;;;;-142.75;100.00;76066.41;5065943;28;20267;-65
2022/08/19 06:48:49;;;;;;;;;;;;;;;-142.75;100.00;76046.72;5065500;28;19923;-65
2022/08/19 06:51:18;;;;;;;;;;;;;;;-142.75;100.00;76042.78;5056874;28;19920;-66
2022/08/19 06:53:46;;;;;;;;;;;;;;;-142.75;100.00;76042.78;5060918;28;20298;-65
2022/08/19 06:56:12;;;;;;;;;;;;;;;-142.75;100.00;76038.84;5059275;28;20356;-65
2022/08/19 06:58:38;;;;;;;;;;;;;;;-142.75;100.00;76038.84;5060171;28;19942;-66
2022/08/19 07:01:03;;;;;;;;;;;;;;;-142.75;100.00;76046.72;5061918;28;20319;-65
2022/08/19 07:03:30;;;;;;;;;;;;;;;-142.75;100.00;76046.72;5061351;28;19916;-65
2022/08/19 07:05:56;;;;;;;;;;;;;;;-142.75;100.00;76038.84;5059958;28;19951;-65
2022/08/19 07:08:21;;;;;;;;;;;;;;;-142.75;100.00;76030.97;5060076;28;20382;-65
2022/08/19 07:10:46;;;;;;;;;;;;;;;-142.75;100.00;76025.06;5040348;28;19955;-65
2022/08/19 07:13:11;;;;;;;;;;;;;;;-142.75;100.00;76019.16;5042595;28;20000;-65
2022/08/19 07:15:37;;;;;;;;;;;;;;;-142.75;100.00;76017.19;5058374;28;19998;-64
2022/08/19 07:18:02;;;;;;;;;;;;;;;-142.75;100.00;76015.22;5045819;28;19966;-65
2022/08/19 07:20:28;;;;;;;;;;;;;;;-142.75;100.00;75999.47;5064971;28;19917;-65
2022/08/19 07:22:53;;;;;;;;;;;;;;;-142.75;100.00;75966.00;5055740;28;19913;-65
2022/08/19 07:25:20;;;;;;;;;;;;;;;-142.75;100.00;75934.53;5063661;28;19974;-65
2022/08/19 07:27:48;;;;;;;;;;;;;;;-142.75;100.00;75903.03;5059871;28;19999;-65
2022/08/19 07:30:13;;;;;;;;;;;;;;;-142.75;100.00;75861.69;5068488;28;19912;-65
2022/08/19 07:32:39;;;;;;;;;;;;;;;-142.75;100.00;75853.84;5047684;28;19923;-64
2022/08/19 07:35:05;;;;;;;;;;;;;;;-142.75;100.00;75800.69;5061742;28;19912;-65
2022/08/19 07:37:31;;;;;;;;;;;;;;;-142.75;100.00;75777.06;5062885;28;19919;-65
2022/08/19 07:39:56;;;;;;;;;;;;;;;-142.75;100.00;75727.88;5053356;28;19916;-65
2022/08/19 07:42:21;;;;;;;;;;;;;;;-142.75;100.00;75690.47;5035602;28;19952;-65
2022/08/19 07:44:46;;;;;;;;;;;;;;;-142.75;100.00;75682.59;5053266;28;20007;-65
2022/08/19 07:47:12;;;;;;;;;;;;;;;-142.75;100.00;75657.03;5035156;28;19963;-64
2022/08/19 07:49:38;;;;;;;;;;;;;;;-142.75;100.00;75657.03;5053092;28;19943;-65
2022/08/19 07:52:06;;;;;;;;;;;;;;;-142.75;100.00;75676.69;5053256;28;19912;-64
2022/08/19 07:54:35;;;;;;;;;;;;;;;-142.75;100.00;75690.47;5052999;28;19913;-65
2022/08/19 07:57:01;;;;;;;;;;;;;;;-142.75;100.00;75739.69;5052726;28;19913;-65
2022/08/19 07:59:28;;;;;;;;;;;;;;;-142.75;100.00;75747.56;5053033;28;19917;-65
2022/08/19 08:01:53;;;;;;;;;;;;;;;-142.75;100.00;75767.22;5052814;28;19962;-65
2022/08/19 08:09:47;;;;;;;;;;;;;;;-142.75;100.00;75845.97;5072747;28;19962;-65
2022/08/19 08:12:14;;;;;;;;;;;;;;;-142.75;100.00;75895.16;5072666;28;20019;-66
2022/08/19 08:14:49;;;;;;;;;;;;;;;-142.75;100.00;75881.38;5054787;28;19916;-65
2022/08/19 08:17:16;;;;;;;;;;;;;;;-142.75;100.00;75905.00;5072525;28;19912;-65
2022/08/19 08:19:42;;;;;;;;;;;;;;;-142.75;100.00;75903.03;5072511;28;19917;-66
2022/08/19 08:22:08;;;;;;;;;;;;;;;-142.75;100.00;75897.13;5054653;28;19912;-65
2022/08/19 08:24:33;;;;;;;;;;;;;;;-142.75;100.00;75912.88;5054270;28;19916;-65
2022/08/19 08:26:59;;;;;;;;;;;;;;;-142.75;100.00;75908.94;5072139;28;20361;-65
2022/08/19 08:29:27;;;;;;;;;;;;;;;-142.75;100.00;75912.88;5072577;28;19957;-65
2022/08/19 08:31:52;;;;;;;;;;;;;;;-142.75;100.00;75932.56;5072403;28;20384;-65
2022/08/19 08:34:17;;;;;;;;;;;;;;;-142.75;100.00;75932.56;5072320;28;19913;-65
2022/08/19 08:36:44;;;;;;;;;;;;;;;-142.75;100.00;75940.44;5072122;28;20016;-65
2022/08/19 08:39:10;;;;;;;;;;;;;;;-142.75;100.00;75932.56;5072183;28;20355;-65
2022/08/19 08:41:44;;;;;;;;;;;;;;;-142.75;100.00;75967.97;5072272;28;19924;-65
2022/08/19 08:44:42;;;;;;;;;;;;;;;-142.75;100.00;75973.88;5072311;28;19913;-65
2022/08/19 08:47:12;;;;;;;;;;;;;;;-142.75;100.00;75971.91;5027287;28;19944;-65
2022/08/19 08:49:55;;;;;;;;;;;;;;;-142.75;100.00;75964.03;5072253;28;19920;-65
2022/08/19 08:52:25;;;;;;;;;;;;;;;-142.75;100.00;75936.50;5072114;28;20007;-65
2022/08/19 08:54:53;;;;;;;;;;;;;;;-142.75;100.00;75891.22;5072218;28;19912;-65
2022/08/19 08:57:27;;;;;;;;;;;;;;;-142.75;100.00;75830.22;5053835;28;19916;-65
2022/08/19 08:59:54;;;;;;;;;;;;;;;-142.75;100.00;75784.94;5054219;28;19921;-65
2022/08/19 09:02:19;;;;;;;;;;;;;;;-142.75;100.00;75739.69;5072029;28;19912;-65
2022/08/19 09:04:45;;;;;;;;;;;;;;;-142.75;100.00;75694.41;5072027;28;20290;-65
2022/08/19 09:07:10;;;;;;;;;;;;;;;-142.75;100.00;75657.03;5053810;28;20343;-65
2022/08/19 09:09:40;;;;;;;;;;;;;;;-142.75;100.00;75639.31;5072114;28;19913;-66
2022/08/19 09:12:10;;;;;;;;;;;;;;;-142.75;100.00;75664.91;5072095;28;19919;-66
2022/08/19 09:14:57;;;;;;;;;;;;;;;-142.75;100.00;75615.69;5071963;28;19916;-66
2022/08/19 09:17:27;;;;;;;;;;;;;;;-142.75;100.00;75597.97;5053828;28;20302;-65
2022/08/19 09:19:54;;;;;;;;;;;;;;;-142.75;100.00;75576.34;5071817;28;20302;-65
2022/08/19 09:22:22;;;;;;;;;;;;;;;-142.75;100.00;75527.13;5071505;28;19917;-66
2022/08/19 09:24:48;;;;;;;;;;;;;;;-142.75;100.00;75475.97;5071721;28;20295;-65
2022/08/19 09:27:14;;;;;;;;;;;;;;;-142.75;100.00;75428.75;5049840;28;20297;-65
2022/08/19 09:29:39;;;;;;;;;;;;;;;-142.75;100.00;75381.50;5071863;28;19912;-66
2022/08/19 09:32:04;;;;;;;;;;;;;;;-142.75;100.00;75393.31;5071914;28;20294;-66
2022/08/19 09:34:29;;;;;;;;;;;;;;;-142.75;100.00;75483.84;5053531;28;19919;-65
2022/08/19 09:36:57;;;;;;;;;;;;;;;-142.75;100.00;75505.50;5071671;28;19923;-65
2022/08/19 09:39:23;;;;;;;;;;;;;;;-142.75;100.00;75568.47;5046321;28;20286;-65
2022/08/19 09:41:49;;;;;;;;;;;;;;;-142.75;100.00;75605.84;5072644;28;19917;-65
2022/08/19 09:44:15;;;;;;;;;;;;;;;-142.75;100.00;75668.84;5057132;28;19917;-66
2022/08/19 09:46:41;;;;;;;;;;;;;;;-142.75;100.00;75704.25;5055261;28;20378;-65
2022/08/19 09:49:06;;;;;;;;;;;;;;;-142.75;100.00;75718.03;5055403;28;19942;-66
2022/08/19 09:51:32;;;;;;;;;;;;;;;-142.75;100.00;75716.06;5055516;28;19966;-66
2022/08/19 09:54:01;;;;;;;;;;;;;;;-142.75;100.00;75775.09;5055359;28;19912;-65
2022/08/19 09:56:27;;;;;;;;;;;;;;;-142.75;100.00;75767.22;5055120;28;19913;-65
2022/08/19 09:58:52;;;;;;;;;;;;;;;-142.75;100.00;75777.06;5055029;28;19991;-66
2022/08/19 10:01:20;;;;;;;;;;;;;;;-142.75;100.00;75796.75;5037061;28;19937;-66
2022/08/19 10:03:47;;;;;;;;;;;;;;;-142.75;100.00;75802.66;5055171;28;19939;-64
2022/08/19 10:06:12;;;;;;;;;;;;;;;-142.75;100.00;75806.59;5055164;28;19912;-64
2022/08/19 10:08:39;;;;;;;;;;;;;;;-142.75;100.00;75794.78;5066335;28;19928;-64
2022/08/19 10:11:05;;;;;;;;;;;;;;;-142.75;100.00;75788.88;5057667;28;19940;-64
2022/08/19 10:13:31;;;;;;;;;;;;;;;-142.75;100.00;75775.09;5065161;28;19912;-64
2022/08/19 10:16:02;;;;;;;;;;;;;;;-142.75;100.00;75763.28;5071999;28;19916;-64
2022/08/19 10:18:27;;;;;;;;;;;;;;;-142.75;100.00;75751.50;5074596;28;19920;-64
2022/08/19 10:21:01;;;;;;;;;;;;;;;-142.75;100.00;75727.88;5074964;28;20293;-64
2022/08/19 10:23:30;;;;;;;;;;;;;;;-142.75;100.00;75716.06;5075084;28;20304;-64
2022/08/19 10:25:59;;;;;;;;;;;;;;;-142.75;100.00;75708.19;5074606;28;19955;-65
2022/08/19 10:28:24;;;;;;;;;;;;;;;-142.75;100.00;75698.34;5063464;28;19939;-66
2022/08/19 10:30:49;;;;;;;;;;;;;;;-142.75;100.00;75684.56;5059796;28;20373;-65
2022/08/19 10:33:14;;;;;;;;;;;;;;;-142.75;100.00;75660.97;5062421;28;19917;-65
2022/08/19 10:35:40;;;;;;;;;;;;;;;-142.75;100.00;75657.03;5060703;28;19916;-67
2022/08/19 10:38:05;;;;;;;;;;;;;;;-142.75;100.00;75641.28;5074118;28;19958;-67
2022/08/19 10:40:30;;;;;;;;;;;;;;;-142.75;100.00;75635.38;5074205;28;19917;-67
2022/08/19 10:42:55;;;;;;;;;;;;;;;-142.75;100.00;75631.44;5074475;28;19913;-67
2022/08/19 10:45:23;;;;;;;;;;;;;;;-142.75;100.00;75637.34;5074419;28;19924;-67
2022/08/19 10:47:48;;;;;;;;;;;;;;;-142.75;100.00;75576.34;5074013;28;19919;-67
2022/08/19 10:53:08;;;;;;;;;;;;;;;-142.75;100.00;75359.88;5019527;28;19921;-67
2022/08/19 10:58:26;;;;;;;;;;;;;;;-142.75;100.00;75350.03;5074239;28;19919;-67
2022/08/19 11:00:57;;;;;;;;;;;;;;;-142.75;100.00;75387.41;5056232;28;20370;-67
2022/08/19 11:03:23;;;;;;;;;;;;;;;-142.75;100.00;75389.38;5074213;28;19912;-67
2022/08/19 11:06:06;;;;;;;;;;;;;;;-142.75;100.00;75401.19;5073999;28;19917;-67
2022/08/19 11:08:32;;;;;;;;;;;;;;;-142.75;100.00;75413.00;5073764;28;20385;-67
2022/08/19 11:11:00;;;;;;;;;;;;;;;-142.75;100.00;75432.69;5055988;28;19920;-67
2022/08/19 11:13:26;;;;;;;;;;;;;;;-142.75;100.00;75458.25;5073932;28;19917;-67
2022/08/19 11:16:01;;;;;;;;;;;;;;;-142.75;100.00;75503.53;5074100;28;19919;-67
2022/08/19 11:18:26;;;;;;;;;;;;;;;-142.75;100.00;75517.28;5073518;28;19935;-67
2022/08/19 11:20:52;;;;;;;;;;;;;;;-142.75;100.00;75554.69;5073749;28;20374;-68
2022/08/19 11:23:17;;;;;;;;;;;;;;;-142.75;100.00;75566.50;5073742;28;19916;-67
2022/08/19 11:25:42;;;;;;;;;;;;;;;-142.75;100.00;75574.38;5073538;28;19992;-67
2022/08/19 11:28:08;;;;;;;;;;;;;;;-142.75;100.00;75584.22;5073296;28;19978;-67
2022/08/19 11:30:33;;;;;;;;;;;;;;;-142.75;100.00;75578.31;5073512;28;19962;-68
2022/08/19 11:33:00;;;;;;;;;;;;;;;-142.75;100.00;75544.84;5073751;28;19913;-67
2022/08/19 11:35:26;;;;;;;;;;;;;;;-142.75;100.00;75525.16;5073506;28;19913;-67
2022/08/19 11:37:51;;;;;;;;;;;;;;;-142.75;100.00;75499.59;5073259;28;19962;-68
2022/08/19 11:40:16;;;;;;;;;;;;;;;-142.75;100.00;75491.72;5055440;28;20019;-68
2022/08/19 11:42:57;;;;;;;;;;;;;;;-142.75;100.00;75509.44;5073906;28;19913;-69
2022/08/19 11:45:23;;;;;;;;;;;;;;;-142.75;100.00;75501.56;5074369;28;19913;-68
2022/08/19 11:47:49;;;;;;;;;;;;;;;-142.75;100.00;75552.72;5073076;28;20418;-68
2022/08/19 11:50:14;;;;;;;;;;;;;;;-142.75;100.00;75550.75;5055419;28;19919;-68
2022/08/19 11:52:40;;;;;;;;;;;;;;;-142.75;100.00;75566.50;5073228;28;19965;-68
2022/08/19 11:55:05;;;;;;;;;;;;;;;-142.75;100.00;75601.91;5072998;28;19919;-68
2022/08/19 11:57:31;;;;;;;;;;;;;;;-142.75;100.00;75623.56;5072479;28;19913;-67
2022/08/19 11:59:56;;;;;;;;;;;;;;;-142.75;100.00;75653.09;5072741;28;20058;-68
2022/08/19 12:02:23;;;;;;;;;;;;;;;-142.75;100.00;75668.84;5072986;28;19919;-68
2022/08/19 12:04:48;;;;;;;;;;;;;;;-142.75;100.00;75684.56;5072922;28;19913;-68
2022/08/19 12:07:13;;;;;;;;;;;;;;;-142.75;100.00;75712.13;5072634;28;19929;-68
2022/08/19 12:09:38;;;;;;;;;;;;;;;-142.75;100.00;75688.50;5072789;28;19919;-67
2022/08/19 12:12:04;;;;;;;;;;;;;;;-142.75;100.00;75712.13;5072767;28;19920;-67
2022/08/19 12:14:31;;;;;;;;;;;;;;;-142.75;100.00;75751.50;5072657;28;20423;-68
2022/08/19 12:16:56;;;;;;;;;;;;;;;-142.75;100.00;75761.34;5072419;28;19913;-68
2022/08/19 12:19:22;;;;;;;;;;;;;;;-142.75;100.00;75786.91;5072588;28;19927;-68
2022/08/19 12:21:47;;;;;;;;;;;;;;;-142.75;100.00;75792.81;5054743;28;19912;-68
2022/08/19 12:26:49;;;;;;;;;;;;;;;-142.75;100.00;75779.03;5072949;28;19992;-65
2022/08/19 12:29:15;;;;;;;;;;;;;;;-142.75;100.00;75769.19;5058112;28;19917;-65
2022/08/19 12:31:40;;;;;;;;;;;;;;;-142.75;100.00;75749.53;5077380;28;19919;-65
2022/08/19 12:34:05;;;;;;;;;;;;;;;-142.75;100.00;75739.69;5059985;28;19912;-65
2022/08/19 12:36:30;;;;;;;;;;;;;;;-142.75;100.00;75731.81;5078412;28;19991;-65